Time;durP1;ratioP1;P1;durP2;ratioP2;P2;SDS_P1;SDS_P2;PMS_P1;PMS_P2;Temp;Humidity;BMP_temperature;BMP_pressure;BME280_temperature;BME280_humidity;BME280_pressure;Samples;Min_cycle;Max_cycle;Signal;HPM_P1;HPM_P2
2022/12/24 00:00:16;;;;;;;;;;;;;;;;;;5052397;28;20296;-84
2022/12/24 00:02:43;;;;;;;;;;;;;;;;;;5044532;28;19928;-83
2022/12/24 00:05:11;;;;;;;;;;;;;;;;;;5041826;28;19924;-84
2022/12/24 00:07:43;;;;;;;;;;;;;;;;;;5044213;28;20365;-85
2022/12/24 00:10:11;;;;;;;;;;;;;;;;;;5047006;28;20289;-83
2022/12/24 00:12:43;;;;;;;;;;;;;;;;;;5036135;28;19920;-83
2022/12/24 00:15:11;;;;;;;;;;;;;;;;;;5042110;28;19928;-84
2022/12/24 00:17:38;;;;;;;;;;;;;;;;;;5073577;28;19935;-84
2022/12/24 00:20:11;;;;;;;;;;;;;;;;;;5053761;28;19921;-84
2022/12/24 00:22:38;;;;;;;;;;;;;;;;;;5040784;28;19925;-83
2022/12/24 00:25:11;;;;;;;;;;;;;;;;;;5066722;28;19925;-83
2022/12/24 00:27:38;;;;;;;;;;;;;;;;;;5034477;28;19929;-83
2022/12/24 00:30:11;;;;;;;;;;;;;;;;;;5045988;28;19936;-83
2022/12/24 00:32:43;;;;;;;;;;;;;;;;;;5037098;28;19921;-84
2022/12/24 00:35:11;;;;;;;;;;;;;;;;;;5050055;28;19921;-84
2022/12/24 00:37:43;;;;;;;;;;;;;;;;;;5047154;28;19921;-84
2022/12/24 00:40:16;;;;;;;;;;;;;;;;;;5078959;28;19948;-84
2022/12/24 00:42:43;;;;;;;;;;;;;;;;;;5073940;28;19921;-82
2022/12/24 00:45:11;;;;;;;;;;;;;;;;;;5050940;28;19921;-83
2022/12/24 00:47:43;;;;;;;;;;;;;;;;;;5049278;28;19927;-83
2022/12/24 00:50:16;;;;;;;;;;;;;;;;;;5044630;28;20385;-83
2022/12/24 00:52:48;;;;;;;;;;;;;;;;;;5051166;28;19931;-83
2022/12/24 00:55:16;;;;;;;;;;;;;;;;;;5049386;28;19943;-83
2022/12/24 00:57:48;;;;;;;;;;;;;;;;;;5075381;28;19925;-84
2022/12/24 01:00:21;;;;;;;;;;;;;;;;;;5049138;28;19924;-83
2022/12/24 01:02:48;;;;;;;;;;;;;;;;;;5043983;28;19925;-83
2022/12/24 01:05:19;;;;;;;;;;;;;;;;;;5046180;28;19927;-83
2022/12/24 01:07:46;;;;;;;;;;;;;;;;;;5054144;28;20385;-83
2022/12/24 01:10:19;;;;;;;;;;;;;;;;;;5050641;28;19932;-83
2022/12/24 01:12:46;;;;;;;;;;;;;;;;;;5072888;28;19928;-83
2022/12/24 01:15:14;;;;;;;;;;;;;;;;;;5073208;28;19921;-84
2022/12/24 01:17:42;;;;;;;;;;;;;;;;;;5072258;28;19928;-83
2022/12/24 01:20:14;;;;;;;;;;;;;;;;;;5045342;28;20353;-84
2022/12/24 01:22:42;;;;;;;;;;;;;;;;;;5069322;28;19923;-84
2022/12/24 01:25:09;;;;;;;;;;;;;;;;;;5066559;28;19925;-84
2022/12/24 01:27:37;;;;;;;;;;;;;;;;;;5048271;28;19921;-84
2022/12/24 01:30:04;;;;;;;;;;;;;;;;;;5056845;28;19921;-83
2022/12/24 01:32:32;;;;;;;;;;;;;;;;;;5042224;28;19921;-84
2022/12/24 01:35:04;;;;;;;;;;;;;;;;;;5074412;28;19921;-83
2022/12/24 01:37:37;;;;;;;;;;;;;;;;;;5038347;28;20286;-83
2022/12/24 01:45:40;;;;;;;;;;;;;;;;;;5049129;28;19920;-84
2022/12/24 01:48:07;;;;;;;;;;;;;;;;;;5040360;28;19928;-83
2022/12/24 01:50:34;;;;;;;;;;;;;;;;;;5041299;28;19921;-83
2022/12/24 01:53:07;;;;;;;;;;;;;;;;;;5044737;28;19921;-83
2022/12/24 01:55:34;;;;;;;;;;;;;;;;;;5042010;28;19921;-84
2022/12/24 01:58:07;;;;;;;;;;;;;;;;;;5044881;28;20819;-84
2022/12/24 02:00:34;;;;;;;;;;;;;;;;;;5035919;28;19921;-83
2022/12/24 02:03:02;;;;;;;;;;;;;;;;;;5035905;28;19928;-84
2022/12/24 02:05:34;;;;;;;;;;;;;;;;;;5057056;28;19935;-84
2022/12/24 02:08:07;;;;;;;;;;;;;;;;;;5043871;28;19936;-84
2022/12/24 02:10:39;;;;;;;;;;;;;;;;;;5057354;28;19998;-83
2022/12/24 02:13:07;;;;;;;;;;;;;;;;;;5048432;28;19921;-83
2022/12/24 02:15:34;;;;;;;;;;;;;;;;;;5036915;28;19928;-84
2022/12/24 02:18:02;;;;;;;;;;;;;;;;;;5047639;28;19935;-83
2022/12/24 02:20:34;;;;;;;;;;;;;;;;;;5047407;28;19921;-83
2022/12/24 02:23:02;;;;;;;;;;;;;;;;;;5036228;28;19921;-83
2022/12/24 02:25:29;;;;;;;;;;;;;;;;;;5040570;28;20292;-84
2022/12/24 02:27:57;;;;;;;;;;;;;;;;;;5051593;28;19928;-83
2022/12/24 02:30:24;;;;;;;;;;;;;;;;;;5065793;28;19929;-82
2022/12/24 02:32:52;;;;;;;;;;;;;;;;;;5047200;28;19921;-83
2022/12/24 02:35:24;;;;;;;;;;;;;;;;;;5065662;28;19936;-84
2022/12/24 02:37:52;;;;;;;;;;;;;;;;;;5039371;28;19921;-82
2022/12/24 02:40:24;;;;;;;;;;;;;;;;;;5044063;28;19925;-82
2022/12/24 02:42:57;;;;;;;;;;;;;;;;;;5051506;28;19921;-83
2022/12/24 02:45:24;;;;;;;;;;;;;;;;;;5073490;28;19929;-84
2022/12/24 02:47:52;;;;;;;;;;;;;;;;;;5073647;28;19921;-83
2022/12/24 02:50:24;;;;;;;;;;;;;;;;;;5043089;28;19925;-83
2022/12/24 02:52:52;;;;;;;;;;;;;;;;;;5039965;28;19921;-83
2022/12/24 02:55:19;;;;;;;;;;;;;;;;;;5044339;28;20415;-82
2022/12/24 02:57:47;;;;;;;;;;;;;;;;;;5049496;28;19935;-82
2022/12/24 03:00:15;;;;;;;;;;;;;;;;;;5050487;28;19920;-82
2022/12/24 03:02:42;;;;;;;;;;;;;;;;;;5077116;28;20385;-81
2022/12/24 03:05:10;;;;;;;;;;;;;;;;;;5036633;28;19932;-82
2022/12/24 03:07:42;;;;;;;;;;;;;;;;;;5058953;28;19924;-83
2022/12/24 03:10:10;;;;;;;;;;;;;;;;;;5079913;28;19924;-83
2022/12/24 03:12:42;;;;;;;;;;;;;;;;;;5051649;28;19921;-84
2022/12/24 03:15:15;;;;;;;;;;;;;;;;;;5054488;28;20298;-83
2022/12/24 03:17:42;;;;;;;;;;;;;;;;;;5074695;28;19932;-83
2022/12/24 03:20:10;;;;;;;;;;;;;;;;;;5074683;28;20415;-83
2022/12/24 03:22:37;;;;;;;;;;;;;;;;;;5038751;28;19921;-83
2022/12/24 03:25:05;;;;;;;;;;;;;;;;;;5074903;28;19921;-84
2022/12/24 03:27:32;;;;;;;;;;;;;;;;;;5044635;28;19921;-82
2022/12/24 03:30:00;;;;;;;;;;;;;;;;;;5078949;28;19924;-83
2022/12/24 03:32:32;;;;;;;;;;;;;;;;;;5047701;28;19921;-83
2022/12/24 03:35:00;;;;;;;;;;;;;;;;;;5071020;28;19924;-84
2022/12/24 03:37:27;;;;;;;;;;;;;;;;;;5049763;28;19927;-82
2022/12/24 03:39:55;;;;;;;;;;;;;;;;;;5051078;28;19925;-82
2022/12/24 03:42:27;;;;;;;;;;;;;;;;;;5046944;28;19943;-84
2022/12/24 03:45:00;;;;;;;;;;;;;;;;;;5049058;28;19925;-83
2022/12/24 03:47:27;;;;;;;;;;;;;;;;;;5042711;28;19936;-83
2022/12/24 03:49:55;;;;;;;;;;;;;;;;;;5051326;28;20381;-84
2022/12/24 03:52:27;;;;;;;;;;;;;;;;;;5047565;28;19920;-82
2022/12/24 03:55:00;;;;;;;;;;;;;;;;;;5036423;28;19932;-82
2022/12/24 03:57:27;;;;;;;;;;;;;;;;;;5044065;28;19928;-83
2022/12/24 04:00:00;;;;;;;;;;;;;;;;;;5055545;28;19928;-82
2022/12/24 04:02:38;;;;;;;;;;;;;;;;;;5045041;28;19920;-82
2022/12/24 04:05:10;;;;;;;;;;;;;;;;;;5050190;28;19925;-84
2022/12/24 04:07:38;;;;;;;;;;;;;;;;;;5062409;28;19928;-82
2022/12/24 04:10:10;;;;;;;;;;;;;;;;;;5069277;28;19925;-83
2022/12/24 04:12:38;;;;;;;;;;;;;;;;;;5042151;28;19925;-83
2022/12/24 04:15:05;;;;;;;;;;;;;;;;;;5047634;28;20434;-83
2022/12/24 04:17:33;;;;;;;;;;;;;;;;;;5042397;28;20882;-82
2022/12/24 04:20:05;;;;;;;;;;;;;;;;;;5034082;28;19928;-82
2022/12/24 04:22:33;;;;;;;;;;;;;;;;;;5075721;28;19921;-83
2022/12/24 04:25:00;;;;;;;;;;;;;;;;;;5037677;28;19936;-83
2022/12/24 04:27:29;;;;;;;;;;;;;;;;;;5057115;28;19921;-83
2022/12/24 04:29:57;;;;;;;;;;;;;;;;;;5045359;28;20589;-83
2022/12/24 04:32:25;;;;;;;;;;;;;;;;;;5047135;28;19944;-84
2022/12/24 04:34:52;;;;;;;;;;;;;;;;;;5040940;28;19928;-83
2022/12/24 04:37:25;;;;;;;;;;;;;;;;;;5042464;28;19924;-82
2022/12/24 04:39:57;;;;;;;;;;;;;;;;;;5082461;28;20415;-83
2022/12/24 04:42:25;;;;;;;;;;;;;;;;;;5077588;28;19925;-82
2022/12/24 04:44:52;;;;;;;;;;;;;;;;;;5041877;28;19928;-83
2022/12/24 04:47:20;;;;;;;;;;;;;;;;;;5042776;28;19928;-83
2022/12/24 04:49:47;;;;;;;;;;;;;;;;;;5039711;28;19921;-83
2022/12/24 04:52:15;;;;;;;;;;;;;;;;;;5045283;28;19921;-83
2022/12/24 04:54:47;;;;;;;;;;;;;;;;;;5042804;28;19928;-83
2022/12/24 04:57:20;;;;;;;;;;;;;;;;;;5047802;28;19921;-83
2022/12/24 04:59:52;;;;;;;;;;;;;;;;;;5048347;28;19921;-84
2022/12/24 05:02:25;;;;;;;;;;;;;;;;;;5045271;28;19940;-82
2022/12/24 05:04:57;;;;;;;;;;;;;;;;;;5038343;28;19928;-82
2022/12/24 05:07:25;;;;;;;;;;;;;;;;;;5043854;28;20392;-84
2022/12/24 05:09:57;;;;;;;;;;;;;;;;;;5042012;28;20004;-83
2022/12/24 05:12:25;;;;;;;;;;;;;;;;;;5071384;28;19925;-83
2022/12/24 05:14:57;;;;;;;;;;;;;;;;;;5039001;28;19928;-83
2022/12/24 05:17:25;;;;;;;;;;;;;;;;;;5044538;28;19932;-82
2022/12/24 05:19:52;;;;;;;;;;;;;;;;;;5065729;28;19932;-82
2022/12/24 05:28:00;;;;;;;;;;;;;;;;;;5047365;28;19921;-82
2022/12/24 05:30:33;;;;;;;;;;;;;;;;;;5047280;28;20293;-82
2022/12/24 05:33:00;;;;;;;;;;;;;;;;;;5040995;28;20285;-82
2022/12/24 05:35:28;;;;;;;;;;;;;;;;;;5082218;28;20274;-82
2022/12/24 05:37:55;;;;;;;;;;;;;;;;;;5048171;28;19921;-83
2022/12/24 05:40:28;;;;;;;;;;;;;;;;;;5051961;28;19920;-82
2022/12/24 05:43:00;;;;;;;;;;;;;;;;;;5046862;28;19921;-82
2022/12/24 05:45:28;;;;;;;;;;;;;;;;;;5043256;28;19920;-83
2022/12/24 05:48:00;;;;;;;;;;;;;;;;;;5033506;28;19928;-82
2022/12/24 05:50:28;;;;;;;;;;;;;;;;;;5033703;28;19929;-82
2022/12/24 05:53:04;;;;;;;;;;;;;;;;;;5040741;28;19921;-83
2022/12/24 05:55:37;;;;;;;;;;;;;;;;;;5042318;28;20294;-82
2022/12/24 05:58:09;;;;;;;;;;;;;;;;;;5037317;28;19928;-82
2022/12/24 06:00:37;;;;;;;;;;;;;;;;;;5043004;28;19921;-82
2022/12/24 06:03:04;;;;;;;;;;;;;;;;;;5040726;28;19928;-83
2022/12/24 06:05:40;;;;;;;;;;;;;;;;;;5046403;28;19921;-82
2022/12/24 06:08:07;;;;;;;;;;;;;;;;;;5042267;28;19921;-82
2022/12/24 06:10:35;;;;;;;;;;;;;;;;;;5045022;28;19927;-83
2022/12/24 06:13:07;;;;;;;;;;;;;;;;;;5051345;28;20498;-82
2022/12/24 06:15:35;;;;;;;;;;;;;;;;;;5071318;28;19920;-84
2022/12/24 06:18:07;;;;;;;;;;;;;;;;;;5078282;28;20297;-84
2022/12/24 06:20:35;;;;;;;;;;;;;;;;;;5071015;28;19920;-82
2022/12/24 06:23:02;;;;;;;;;;;;;;;;;;5041523;28;19925;-86
2022/12/24 06:25:35;;;;;;;;;;;;;;;;;;5075039;28;19921;-82
2022/12/24 06:28:02;;;;;;;;;;;;;;;;;;5038904;28;19932;-82
2022/12/24 06:30:30;;;;;;;;;;;;;;;;;;5048534;28;19920;-82
2022/12/24 06:33:02;;;;;;;;;;;;;;;;;;5050408;28;19925;-82
2022/12/24 06:35:30;;;;;;;;;;;;;;;;;;5051454;28;20309;-82
2022/12/24 06:38:02;;;;;;;;;;;;;;;;;;5047385;28;19947;-82
2022/12/24 06:40:35;;;;;;;;;;;;;;;;;;5070818;28;19921;-82
2022/12/24 06:43:02;;;;;;;;;;;;;;;;;;5031760;28;19939;-84
2022/12/24 06:45:30;;;;;;;;;;;;;;;;;;5031578;28;19928;-83
2022/12/24 06:48:03;;;;;;;;;;;;;;;;;;5041978;28;20271;-82
2022/12/24 06:50:31;;;;;;;;;;;;;;;;;;5046249;28;19956;-82
2022/12/24 06:52:58;;;;;;;;;;;;;;;;;;5044739;28;20397;-83
2022/12/24 06:55:25;;;;;;;;;;;;;;;;;;5048220;28;19921;-82
2022/12/24 06:57:53;;;;;;;;;;;;;;;;;;5032772;28;19932;-83
2022/12/24 07:00:21;;;;;;;;;;;;;;;;;;5041649;28;20369;-81
2022/12/24 07:02:49;;;;;;;;;;;;;;;;;;5059961;28;19921;-83
2022/12/24 07:05:21;;;;;;;;;;;;;;;;;;5084461;28;19920;-82
2022/12/24 07:07:53;;;;;;;;;;;;;;;;;;5047372;28;19932;-84
2022/12/24 07:10:21;;;;;;;;;;;;;;;;;;5041287;28;19920;-82
2022/12/24 07:12:49;;;;;;;;;;;;;;;;;;5033903;28;20273;-82
2022/12/24 07:15:21;;;;;;;;;;;;;;;;;;5057423;28;19921;-82
2022/12/24 07:17:49;;;;;;;;;;;;;;;;;;5048188;28;19921;-83
2022/12/24 07:20:21;;;;;;;;;;;;;;;;;;5071745;28;19929;-83
2022/12/24 07:22:49;;;;;;;;;;;;;;;;;;5070849;28;19928;-83
2022/12/24 07:25:16;;;;;;;;;;;;;;;;;;5049988;28;20293;-82
2022/12/24 07:27:44;;;;;;;;;;;;;;;;;;5049725;28;19947;-82
2022/12/24 07:30:16;;;;;;;;;;;;;;;;;;5044198;28;20371;-83
2022/12/24 07:32:44;;;;;;;;;;;;;;;;;;5041141;28;19925;-82
2022/12/24 07:35:17;;;;;;;;;;;;;;;;;;5055308;28;19921;-83
2022/12/24 07:37:44;;;;;;;;;;;;;;;;;;5046728;28;19928;-82
2022/12/24 07:40:17;;;;;;;;;;;;;;;;;;5076266;28;19921;-82
2022/12/24 07:42:44;;;;;;;;;;;;;;;;;;5083589;28;19920;-83
2022/12/24 07:45:12;;;;;;;;;;;;;;;;;;5067560;28;19943;-83
2022/12/24 07:47:44;;;;;;;;;;;;;;;;;;5043946;28;20313;-82
2022/12/24 07:50:17;;;;;;;;;;;;;;;;;;5052068;28;19927;-83
2022/12/24 07:52:44;;;;;;;;;;;;;;;;;;5048302;28;19939;-84
2022/12/24 07:55:12;;;;;;;;;;;;;;;;;;5052030;28;19920;-82
2022/12/24 07:57:39;;;;;;;;;;;;;;;;;;5049800;28;19921;-82
2022/12/24 08:00:07;;;;;;;;;;;;;;;;;;5051857;28;19928;-84
2022/12/24 08:02:39;;;;;;;;;;;;;;;;;;5057750;28;19920;-83
2022/12/24 08:05:07;;;;;;;;;;;;;;;;;;5045918;28;19921;-82
2022/12/24 08:07:34;;;;;;;;;;;;;;;;;;5061850;28;19927;-82
2022/12/24 08:10:02;;;;;;;;;;;;;;;;;;5052035;28;19928;-82
2022/12/24 08:12:29;;;;;;;;;;;;;;;;;;5053584;28;19920;-84
2022/12/24 08:14:57;;;;;;;;;;;;;;;;;;5042867;28;19921;-83
2022/12/24 08:17:29;;;;;;;;;;;;;;;;;;5044791;28;20466;-83
2022/12/24 08:20:02;;;;;;;;;;;;;;;;;;5050005;28;20424;-84
2022/12/24 08:22:35;;;;;;;;;;;;;;;;;;5067692;28;19938;-84
2022/12/24 08:25:07;;;;;;;;;;;;;;;;;;5052955;28;19921;-83
2022/12/24 08:27:35;;;;;;;;;;;;;;;;;;5059707;28;20370;-85
2022/12/24 08:30:07;;;;;;;;;;;;;;;;;;5053145;28;19920;-84
2022/12/24 08:32:35;;;;;;;;;;;;;;;;;;5051809;28;19921;-84
2022/12/24 08:35:02;;;;;;;;;;;;;;;;;;5040704;28;19920;-83
2022/12/24 08:37:35;;;;;;;;;;;;;;;;;;5081950;28;19927;-83
2022/12/24 08:40:07;;;;;;;;;;;;;;;;;;5069715;28;19996;-83
2022/12/24 08:42:35;;;;;;;;;;;;;;;;;;5044522;28;19928;-82
2022/12/24 08:45:02;;;;;;;;;;;;;;;;;;5073028;28;19928;-84
2022/12/24 08:47:35;;;;;;;;;;;;;;;;;;5044649;28;19924;-83
2022/12/24 08:50:02;;;;;;;;;;;;;;;;;;5061954;28;19921;-83
2022/12/24 08:52:30;;;;;;;;;;;;;;;;;;5042262;28;19920;-83
2022/12/24 08:54:57;;;;;;;;;;;;;;;;;;5048683;28;19928;-82
2022/12/24 08:57:30;;;;;;;;;;;;;;;;;;5075985;28;19920;-81
2022/12/24 08:59:57;;;;;;;;;;;;;;;;;;5042990;28;20305;-83
2022/12/24 09:02:25;;;;;;;;;;;;;;;;;;5047007;28;19939;-82
2022/12/24 09:04:57;;;;;;;;;;;;;;;;;;5048811;28;20891;-83
2022/12/24 09:07:25;;;;;;;;;;;;;;;;;;5042488;28;19948;-84
2022/12/24 09:09:52;;;;;;;;;;;;;;;;;;5075159;28;19921;-81
2022/12/24 09:12:20;;;;;;;;;;;;;;;;;;5050979;28;19928;-83
2022/12/24 09:14:47;;;;;;;;;;;;;;;;;;5044711;28;19920;-81
2022/12/24 09:17:15;;;;;;;;;;;;;;;;;;5034580;28;19921;-82
2022/12/24 09:19:42;;;;;;;;;;;;;;;;;;5039611;28;20377;-82
2022/12/24 09:22:10;;;;;;;;;;;;;;;;;;5041761;28;19944;-82
2022/12/24 09:24:37;;;;;;;;;;;;;;;;;;5045182;28;19921;-82
2022/12/24 09:27:05;;;;;;;;;;;;;;;;;;5045952;28;19928;-82
2022/12/24 09:29:39;;;;;;;;;;;;;;;;;;5035297;28;19979;-81
2022/12/24 09:32:11;;;;;;;;;;;;;;;;;;5039876;28;19921;-82
2022/12/24 09:34:39;;;;;;;;;;;;;;;;;;5041684;28;20293;-82
2022/12/24 09:37:07;;;;;;;;;;;;;;;;;;5051826;28;19921;-83
2022/12/24 09:39:34;;;;;;;;;;;;;;;;;;5042800;28;20296;-82
2022/12/24 09:42:02;;;;;;;;;;;;;;;;;;5050963;28;20600;-81
2022/12/24 09:44:29;;;;;;;;;;;;;;;;;;5046637;28;19920;-83
2022/12/24 09:46:56;;;;;;;;;;;;;;;;;;5034666;28;19928;-84
2022/12/24 09:49:29;;;;;;;;;;;;;;;;;;5073085;28;19929;-84
2022/12/24 09:52:02;;;;;;;;;;;;;;;;;;5037205;28;19935;-83
2022/12/24 09:54:29;;;;;;;;;;;;;;;;;;5033513;28;20488;-84
2022/12/24 09:57:02;;;;;;;;;;;;;;;;;;5027731;28;19928;-82
2022/12/24 09:59:30;;;;;;;;;;;;;;;;;;5063061;28;21589;-82
2022/12/24 10:01:57;;;;;;;;;;;;;;;;;;5033390;28;19924;-83
2022/12/24 10:04:25;;;;;;;;;;;;;;;;;;5034773;28;19935;-84
2022/12/24 10:06:52;;;;;;;;;;;;;;;;;;5036153;28;19921;-81
2022/12/24 10:09:25;;;;;;;;;;;;;;;;;;5031043;28;20403;-82
2022/12/24 10:11:58;;;;;;;;;;;;;;;;;;5025460;28;19928;-84
2022/12/24 10:14:30;;;;;;;;;;;;;;;;;;5029710;28;19928;-85
2022/12/24 10:17:03;;;;;;;;;;;;;;;;;;5062048;28;19929;-86
2022/12/24 10:19:30;;;;;;;;;;;;;;;;;;5030021;28;19921;-84
2022/12/24 10:21:58;;;;;;;;;;;;;;;;;;5030378;28;20341;-87
2022/12/24 10:24:25;;;;;;;;;;;;;;;;;;5060150;28;19928;-85
2022/12/24 10:26:53;;;;;;;;;;;;;;;;;;5058897;28;19929;-84
2022/12/24 10:29:20;;;;;;;;;;;;;;;;;;5033241;28;19925;-84
2022/12/24 10:31:48;;;;;;;;;;;;;;;;;;5026099;28;19925;-87
2022/12/24 10:34:16;;;;;;;;;;;;;;;;;;5031771;28;19943;-84
2022/12/24 10:36:48;;;;;;;;;;;;;;;;;;5029380;28;21140;-84
2022/12/24 10:39:16;;;;;;;;;;;;;;;;;;5027413;28;19935;-84
2022/12/24 10:41:43;;;;;;;;;;;;;;;;;;5024762;28;19928;-86
2022/12/24 10:44:11;;;;;;;;;;;;;;;;;;5029086;28;19928;-85
2022/12/24 10:46:40;;;;;;;;;;;;;;;;;;5035274;28;19944;-86
2022/12/24 10:49:08;;;;;;;;;;;;;;;;;;5033134;28;19936;-88
2022/12/24 10:51:35;;;;;;;;;;;;;;;;;;5030554;28;21376;-85
2022/12/24 10:54:03;;;;;;;;;;;;;;;;;;5029268;28;19928;-84
2022/12/24 10:56:30;;;;;;;;;;;;;;;;;;5032563;28;19929;-86
2022/12/24 10:58:58;;;;;;;;;;;;;;;;;;5030082;28;19983;-85
2022/12/24 11:01:30;;;;;;;;;;;;;;;;;;5064855;28;20305;-85
2022/12/24 11:03:58;;;;;;;;;;;;;;;;;;5026855;28;19928;-85
2022/12/24 11:06:30;;;;;;;;;;;;;;;;;;5029257;28;19928;-85
2022/12/24 11:09:03;;;;;;;;;;;;;;;;;;5068738;28;19936;-86
2022/12/24 11:11:31;;;;;;;;;;;;;;;;;;5030103;28;19929;-85
2022/12/24 11:14:03;;;;;;;;;;;;;;;;;;5032158;28;20486;-85
2022/12/24 11:16:36;;;;;;;;;;;;;;;;;;5065693;28;19964;-85
2022/12/24 11:19:03;;;;;;;;;;;;;;;;;;5035247;28;19929;-83
2022/12/24 11:21:31;;;;;;;;;;;;;;;;;;5029465;28;19929;-85
2022/12/24 11:23:58;;;;;;;;;;;;;;;;;;5029353;28;20389;-87
2022/12/24 11:26:31;;;;;;;;;;;;;;;;;;5037243;28;19950;-84
2022/12/24 11:28:58;;;;;;;;;;;;;;;;;;5071464;28;19935;-85
2022/12/24 11:31:26;;;;;;;;;;;;;;;;;;5035366;28;19928;-84
2022/12/24 11:33:53;;;;;;;;;;;;;;;;;;5035401;28;19928;-84
2022/12/24 11:36:26;;;;;;;;;;;;;;;;;;5033753;28;19963;-85
2022/12/24 11:38:54;;;;;;;;;;;;;;;;;;5035769;28;19928;-86
2022/12/24 11:41:21;;;;;;;;;;;;;;;;;;5035246;28;19936;-86
2022/12/24 11:43:49;;;;;;;;;;;;;;;;;;5030424;28;20692;-84
2022/12/24 11:46:16;;;;;;;;;;;;;;;;;;5033617;28;20982;-85
2022/12/24 11:48:44;;;;;;;;;;;;;;;;;;5034579;28;19941;-86
2022/12/24 11:51:11;;;;;;;;;;;;;;;;;;5059957;28;19931;-84
2022/12/24 11:53:39;;;;;;;;;;;;;;;;;;5031285;28;20675;-84
2022/12/24 11:56:06;;;;;;;;;;;;;;;;;;5034986;28;19929;-85
2022/12/24 11:58:39;;;;;;;;;;;;;;;;;;5027580;28;19929;-85
2022/12/24 12:01:06;;;;;;;;;;;;;;;;;;5029934;28;19929;-86
2022/12/24 12:03:34;;;;;;;;;;;;;;;;;;5030879;28;19933;-86
2022/12/24 12:06:01;;;;;;;;;;;;;;;;;;5033337;28;19929;-84
2022/12/24 12:08:34;;;;;;;;;;;;;;;;;;5027392;28;20581;-85
2022/12/24 12:11:06;;;;;;;;;;;;;;;;;;5060921;28;19929;-84
2022/12/24 12:13:39;;;;;;;;;;;;;;;;;;5028791;28;19936;-86
2022/12/24 12:16:12;;;;;;;;;;;;;;;;;;5030432;28;19929;-83
2022/12/24 12:18:39;;;;;;;;;;;;;;;;;;5027631;28;19932;-85
2022/12/24 12:21:07;;;;;;;;;;;;;;;;;;5033115;28;19928;-85
2022/12/24 12:23:39;;;;;;;;;;;;;;;;;;5027974;28;19928;-86
2022/12/24 12:26:07;;;;;;;;;;;;;;;;;;5024876;28;19929;-85
2022/12/24 12:28:34;;;;;;;;;;;;;;;;;;5027709;28;19929;-86
2022/12/24 12:31:02;;;;;;;;;;;;;;;;;;5029152;28;19940;-85
2022/12/24 12:33:34;;;;;;;;;;;;;;;;;;5063785;28;19928;-85
2022/12/24 12:36:02;;;;;;;;;;;;;;;;;;5033024;28;19952;-85
2022/12/24 12:38:29;;;;;;;;;;;;;;;;;;5029423;28;19940;-86
2022/12/24 12:41:02;;;;;;;;;;;;;;;;;;5069100;28;19921;-85
2022/12/24 12:43:34;;;;;;;;;;;;;;;;;;5031958;28;19935;-86
2022/12/24 12:46:07;;;;;;;;;;;;;;;;;;5027371;28;19928;-85
2022/12/24 12:48:35;;;;;;;;;;;;;;;;;;5031757;28;20636;-86
2022/12/24 12:51:02;;;;;;;;;;;;;;;;;;5026116;28;19955;-85
2022/12/24 12:53:30;;;;;;;;;;;;;;;;;;5027401;28;19936;-85
2022/12/24 12:55:57;;;;;;;;;;;;;;;;;;5057277;28;20954;-85
2022/12/24 12:58:30;;;;;;;;;;;;;;;;;;5025085;28;19928;-85
2022/12/24 13:01:02;;;;;;;;;;;;;;;;;;5025474;28;19935;-85
2022/12/24 13:03:35;;;;;;;;;;;;;;;;;;5026688;28;19936;-85
2022/12/24 13:06:02;;;;;;;;;;;;;;;;;;5027120;28;19929;-85
2022/12/24 13:08:30;;;;;;;;;;;;;;;;;;5026694;28;19921;-86
2022/12/24 13:10:57;;;;;;;;;;;;;;;;;;5035766;28;19936;-86
2022/12/24 13:13:30;;;;;;;;;;;;;;;;;;5032075;28;20415;-85
2022/12/24 13:15:57;;;;;;;;;;;;;;;;;;5034067;28;21616;-86
2022/12/24 13:18:25;;;;;;;;;;;;;;;;;;5031714;28;19928;-86
2022/12/24 13:20:57;;;;;;;;;;;;;;;;;;5060580;28;19954;-86
2022/12/24 13:23:25;;;;;;;;;;;;;;;;;;5027003;28;20286;-85
2022/12/24 13:25:57;;;;;;;;;;;;;;;;;;5030022;28;20333;-86
2022/12/24 13:28:25;;;;;;;;;;;;;;;;;;5033604;28;19929;-86
2022/12/24 13:30:57;;;;;;;;;;;;;;;;;;5059204;28;20442;-86
2022/12/24 13:33:25;;;;;;;;;;;;;;;;;;5067040;28;19928;-85
2022/12/24 13:35:52;;;;;;;;;;;;;;;;;;5029286;28;20305;-86
2022/12/24 13:38:25;;;;;;;;;;;;;;;;;;5029076;28;19935;-86
2022/12/24 13:40:57;;;;;;;;;;;;;;;;;;5028753;28;19929;-86
2022/12/24 13:43:25;;;;;;;;;;;;;;;;;;5028024;28;19932;-86
2022/12/24 13:45:53;;;;;;;;;;;;;;;;;;5032028;28;19928;-86
2022/12/24 13:48:20;;;;;;;;;;;;;;;;;;5067747;28;19928;-86
2022/12/24 13:50:48;;;;;;;;;;;;;;;;;;5026444;28;19929;-87
2022/12/24 13:53:20;;;;;;;;;;;;;;;;;;5028997;28;19928;-86
2022/12/24 13:55:48;;;;;;;;;;;;;;;;;;5072289;28;19929;-86
2022/12/24 13:58:15;;;;;;;;;;;;;;;;;;5028289;28;20293;-86
2022/12/24 14:00:43;;;;;;;;;;;;;;;;;;5059967;28;19928;-86
2022/12/24 14:03:15;;;;;;;;;;;;;;;;;;5026727;28;19928;-86
2022/12/24 14:05:43;;;;;;;;;;;;;;;;;;5058998;28;19929;-86
2022/12/24 14:08:15;;;;;;;;;;;;;;;;;;5026720;28;19936;-85
2022/12/24 14:10:48;;;;;;;;;;;;;;;;;;5026589;28;19939;-86
2022/12/24 14:13:15;;;;;;;;;;;;;;;;;;5042454;28;19933;-85
2022/12/24 14:15:48;;;;;;;;;;;;;;;;;;5027344;28;19928;-86
2022/12/24 14:18:15;;;;;;;;;;;;;;;;;;5033139;28;19928;-86
2022/12/24 14:20:43;;;;;;;;;;;;;;;;;;5058446;28;20297;-85
2022/12/24 14:23:10;;;;;;;;;;;;;;;;;;5024640;28;19955;-85
2022/12/24 14:25:43;;;;;;;;;;;;;;;;;;5028112;28;20289;-86
2022/12/24 14:28:10;;;;;;;;;;;;;;;;;;5035852;28;19924;-86
2022/12/24 14:30:38;;;;;;;;;;;;;;;;;;5028244;28;20623;-86
2022/12/24 14:33:05;;;;;;;;;;;;;;;;;;5060483;28;19956;-86
2022/12/24 14:35:33;;;;;;;;;;;;;;;;;;5030449;28;20618;-86
2022/12/24 14:38:01;;;;;;;;;;;;;;;;;;5029932;28;19939;-86
2022/12/24 14:40:28;;;;;;;;;;;;;;;;;;5024454;28;19928;-86
2022/12/24 14:42:56;;;;;;;;;;;;;;;;;;5064480;28;19935;-86
2022/12/24 14:45:28;;;;;;;;;;;;;;;;;;5037645;28;19936;-86
2022/12/24 14:47:56;;;;;;;;;;;;;;;;;;5030287;28;19928;-86
2022/12/24 14:50:23;;;;;;;;;;;;;;;;;;5066160;28;19936;-88
2022/12/24 14:52:51;;;;;;;;;;;;;;;;;;5030513;28;19928;-87
2022/12/24 14:55:23;;;;;;;;;;;;;;;;;;5033652;28;19928;-86
2022/12/24 14:57:51;;;;;;;;;;;;;;;;;;5034852;28;19932;-84
2022/12/24 15:00:18;;;;;;;;;;;;;;;;;;5038083;28;20296;-85
2022/12/24 15:02:46;;;;;;;;;;;;;;;;;;5034778;28;19920;-84
2022/12/24 15:05:19;;;;;;;;;;;;;;;;;;5032409;28;19929;-85
2022/12/24 15:07:51;;;;;;;;;;;;;;;;;;5065334;28;20019;-85
2022/12/24 15:10:19;;;;;;;;;;;;;;;;;;5033658;28;19959;-85
2022/12/24 15:12:46;;;;;;;;;;;;;;;;;;5064334;28;19939;-86
2022/12/24 15:15:14;;;;;;;;;;;;;;;;;;5033600;28;19929;-85
2022/12/24 15:17:42;;;;;;;;;;;;;;;;;;5030421;28;20393;-85
2022/12/24 15:20:14;;;;;;;;;;;;;;;;;;5039573;28;19921;-87
2022/12/24 15:22:42;;;;;;;;;;;;;;;;;;5066854;28;20392;-84
2022/12/24 15:25:09;;;;;;;;;;;;;;;;;;5035538;28;19999;-85
2022/12/24 15:27:42;;;;;;;;;;;;;;;;;;5030998;28;19954;-87
2022/12/24 15:30:10;;;;;;;;;;;;;;;;;;5028650;28;19928;-86
2022/12/24 15:32:42;;;;;;;;;;;;;;;;;;5051851;28;19936;-85
2022/12/24 15:35:10;;;;;;;;;;;;;;;;;;5032015;28;19929;-87
2022/12/24 15:37:37;;;;;;;;;;;;;;;;;;5031343;28;19954;-86
2022/12/24 15:40:05;;;;;;;;;;;;;;;;;;5067525;28;20289;-85
2022/12/24 15:42:32;;;;;;;;;;;;;;;;;;5066435;28;19963;-85
2022/12/24 15:45:00;;;;;;;;;;;;;;;;;;5055703;28;20317;-85
2022/12/24 15:47:36;;;;;;;;;;;;;;;;;;5064192;28;21264;-86
2022/12/24 15:50:04;;;;;;;;;;;;;;;;;;5034488;28;20926;-85
2022/12/24 15:52:37;;;;;;;;;;;;;;;;;;5033223;28;19928;-86
2022/12/24 15:55:04;;;;;;;;;;;;;;;;;;5027605;28;20779;-87
2022/12/24 15:57:32;;;;;;;;;;;;;;;;;;5028974;28;19951;-85
2022/12/24 15:59:59;;;;;;;;;;;;;;;;;;5032317;28;19943;-85
2022/12/24 16:02:27;;;;;;;;;;;;;;;;;;5063644;28;19928;-88
2022/12/24 16:04:54;;;;;;;;;;;;;;;;;;5038898;28;19929;-85
2022/12/24 16:08:05;;;;;;;;;;;;;;;;;;5050968;28;19960;-87
2022/12/24 16:10:20;;;;;;;;;;;;;;;;;;5033274;28;19928;-86
2022/12/24 16:12:53;;;;;;;;;;;;;;;;;;5059123;28;19928;-85
2022/12/24 16:15:20;;;;;;;;;;;;;;;;;;5064598;28;19928;-84
2022/12/24 16:17:48;;;;;;;;;;;;;;;;;;5063873;28;19984;-86
2022/12/24 16:20:20;;;;;;;;;;;;;;;;;;5033002;28;19932;-85
2022/12/24 16:22:48;;;;;;;;;;;;;;;;;;5036739;28;19936;-86
2022/12/24 16:25:15;;;;;;;;;;;;;;;;;;5065598;28;19928;-87
2022/12/24 16:27:43;;;;;;;;;;;;;;;;;;5064094;28;19955;-86
2022/12/24 16:30:10;;;;;;;;;;;;;;;;;;5036090;28;19925;-84
2022/12/24 16:32:38;;;;;;;;;;;;;;;;;;5030570;28;19928;-86
2022/12/24 16:35:05;;;;;;;;;;;;;;;;;;5064872;28;19928;-85
2022/12/24 16:37:33;;;;;;;;;;;;;;;;;;5030193;28;19936;-84
2022/12/24 16:40:00;;;;;;;;;;;;;;;;;;5063665;28;19932;-85
2022/12/24 16:45:18;;;;;;;;;;;;;;;;;;5034170;28;19936;-84
2022/12/24 16:47:46;;;;;;;;;;;;;;;;;;5064501;28;19928;-84
2022/12/24 16:50:13;;;;;;;;;;;;;;;;;;5027849;28;20266;-86
2022/12/24 16:52:46;;;;;;;;;;;;;;;;;;5061658;28;19929;-86
2022/12/24 16:55:13;;;;;;;;;;;;;;;;;;5035448;28;19929;-86
2022/12/24 16:57:41;;;;;;;;;;;;;;;;;;5064442;28;21158;-84
2022/12/24 17:00:08;;;;;;;;;;;;;;;;;;5034302;28;19925;-86
2022/12/24 17:02:36;;;;;;;;;;;;;;;;;;5032161;28;20301;-84
2022/12/24 17:05:04;;;;;;;;;;;;;;;;;;5028860;28;19928;-86
2022/12/24 17:07:36;;;;;;;;;;;;;;;;;;5031583;28;19928;-86
2022/12/24 17:10:09;;;;;;;;;;;;;;;;;;5031468;28;19929;-85
2022/12/24 17:12:41;;;;;;;;;;;;;;;;;;5029677;28;19929;-86